createdAt,value
2022-09-01T00:01:39.361Z,79.29
2022-09-01T00:04:06.505Z,78.71
2022-09-01T00:06:34.530Z,78.88
2022-09-01T00:09:03.966Z,79.05
2022-09-01T00:11:31.357Z,79.15
2022-09-01T00:14:00.277Z,79.45
2022-09-01T00:16:27.918Z,79.36
2022-09-01T00:18:55.215Z,79.52
2022-09-01T00:21:25.306Z,79.69
2022-09-01T00:23:53.773Z,80.18
2022-09-01T00:26:20.760Z,80.12
2022-09-01T00:28:47.395Z,80.40
2022-09-01T00:31:14.550Z,80.60
2022-09-01T00:33:41.430Z,80.66
2022-09-01T00:36:08.454Z,81.08
2022-09-01T00:38:35.117Z,81.35
2022-09-01T00:41:03.959Z,81.39
2022-09-01T00:43:38.840Z,81.67
2022-09-01T00:46:07.669Z,81.17
2022-09-01T00:48:36.831Z,81.24
2022-09-01T00:51:06.147Z,81.78
2022-09-01T00:53:34.278Z,81.80
2022-09-01T00:56:03.451Z,81.55
2022-09-01T00:58:31.200Z,81.83
2022-09-01T01:00:57.962Z,81.92
2022-09-01T01:03:24.570Z,81.77
2022-09-01T01:05:55.972Z,81.58
2022-09-01T01:08:24.202Z,81.77
2022-09-01T01:10:50.901Z,81.83
2022-09-01T01:13:19.315Z,81.83
2022-09-01T01:15:45.886Z,82.13
2022-09-01T01:18:14.566Z,81.92
2022-09-01T01:20:43.754Z,82.12
2022-09-01T01:23:19.784Z,82.23
2022-09-01T01:25:50.841Z,82.33
2022-09-01T01:28:21.452Z,82.32
2022-09-01T01:30:55.748Z,82.35
2022-09-01T01:33:25.490Z,82.63
2022-09-01T01:35:53.717Z,82.62
2022-09-01T01:38:20.954Z,82.22
2022-09-01T01:40:52.242Z,81.87
2022-09-01T01:43:19.857Z,82.05
2022-09-01T01:45:46.540Z,81.89
2022-09-01T01:48:13.555Z,81.99
2022-09-01T01:50:40.460Z,82.12
2022-09-01T01:53:10.784Z,82.22
2022-09-01T01:55:37.949Z,82.05
2022-09-01T01:58:05.943Z,82.47
2022-09-01T02:00:32.875Z,82.62
2022-09-01T02:02:59.473Z,82.55
2022-09-01T02:05:28.661Z,82.77
2022-09-01T02:07:57.874Z,82.93
2022-09-01T02:10:28.232Z,82.90
2022-09-01T02:12:54.924Z,82.65
2022-09-01T02:15:22.851Z,83.09
2022-09-01T02:17:49.522Z,82.74
2022-09-01T02:20:16.253Z,82.54
2022-09-01T02:22:43.379Z,82.56
2022-09-01T02:25:10.246Z,82.25
2022-09-01T02:27:37.126Z,82.00
2022-09-01T02:30:04.856Z,82.02
2022-09-01T02:32:32.885Z,81.78
2022-09-01T02:34:59.505Z,81.56
2022-09-01T02:37:26.732Z,81.45
2022-09-01T02:39:53.360Z,81.47
2022-09-01T02:42:20.343Z,81.57
2022-09-01T02:44:46.901Z,81.90
2022-09-01T02:47:13.581Z,81.88
2022-09-01T02:49:41.605Z,81.86
2022-09-01T02:52:08.768Z,82.03
2022-09-01T02:54:35.354Z,81.75
2022-09-01T02:57:02.006Z,81.82
2022-09-01T02:59:29.566Z,81.73
2022-09-01T03:01:59.652Z,81.88
2022-09-01T03:04:26.579Z,82.17
2022-09-01T03:06:55.236Z,81.82
2022-09-01T03:09:22.916Z,82.24
2022-09-01T03:11:51.528Z,82.15
2022-09-01T03:14:18.996Z,82.35
2022-09-01T03:16:45.814Z,82.47
2022-09-01T03:19:13.278Z,82.72
2022-09-01T03:21:44.150Z,82.64
2022-09-01T03:24:16.390Z,82.75
2022-09-01T03:26:44.484Z,82.81
2022-09-01T03:29:11.780Z,83.17
2022-09-01T03:31:38.712Z,83.19
2022-09-01T03:34:06.599Z,82.97
2022-09-01T03:36:38.854Z,83.01
2022-09-01T03:39:06.178Z,83.67
2022-09-01T03:41:34.113Z,83.42
2022-09-01T03:44:00.804Z,83.81
2022-09-01T03:46:35.715Z,84.72
2022-09-01T03:49:03.744Z,84.54
2022-09-01T03:51:30.816Z,84.22
2022-09-01T03:54:00.076Z,84.44
2022-09-01T03:56:28.315Z,84.45
2022-09-01T03:58:59.613Z,84.86
2022-09-01T04:01:28.539Z,84.95
2022-09-01T04:03:56.353Z,85.11
2022-09-01T04:06:25.761Z,85.08
2022-09-01T04:08:53.373Z,85.37
2022-09-01T04:11:20.360Z,85.31
2022-09-01T04:13:49.021Z,85.66
2022-09-01T04:16:22.537Z,85.74
2022-09-01T04:18:49.461Z,86.03
2022-09-01T04:21:16.150Z,86.43
2022-09-01T04:23:42.941Z,86.13
2022-09-01T04:26:12.361Z,86.62
2022-09-01T04:28:41.001Z,86.58
2022-09-01T04:31:09.855Z,86.90
2022-09-01T04:33:40.109Z,86.53
2022-09-01T04:36:16.028Z,86.49
2022-09-01T04:38:43.463Z,87.32
2022-09-01T04:41:10.022Z,87.21
2022-09-01T04:43:36.643Z,87.02
2022-09-01T04:46:03.606Z,86.87
2022-09-01T04:48:30.271Z,86.80
2022-09-01T04:50:58.246Z,86.67
2022-09-01T04:53:28.558Z,86.46
2022-09-01T04:55:55.477Z,86.33
2022-09-01T04:58:24.311Z,86.41
2022-09-01T05:00:51.504Z,86.73
2022-09-01T05:03:19.218Z,86.49
2022-09-01T05:05:54.183Z,86.48
2022-09-01T05:08:23.379Z,86.67
2022-09-01T05:10:52.828Z,86.89
2022-09-01T05:13:30.197Z,87.31
2022-09-01T05:16:02.138Z,87.08
2022-09-01T05:18:29.339Z,87.15
2022-09-01T05:20:57.206Z,87.27
2022-09-01T05:23:26.081Z,87.69
2022-09-01T05:25:53.142Z,87.55
2022-09-01T05:28:20.768Z,87.73
2022-09-01T05:30:47.917Z,87.67
2022-09-01T05:33:19.903Z,88.10
2022-09-01T05:35:53.782Z,88.07
2022-09-01T05:38:20.682Z,88.15
2022-09-01T05:40:57.971Z,88.34
2022-09-01T05:43:24.898Z,88.51
2022-09-01T05:46:05.984Z,88.67
2022-09-01T05:48:35.314Z,89.16
2022-09-01T05:51:11.428Z,89.12
2022-09-01T05:53:50.413Z,89.14
2022-09-01T05:56:20.396Z,89.27
2022-09-01T06:01:34.646Z,89.50
2022-09-01T06:04:02.535Z,89.95
2022-09-01T06:06:48.959Z,89.42
2022-09-01T06:09:22.892Z,89.31
2022-09-01T06:11:53.781Z,89.11
2022-09-01T06:14:20.414Z,89.16
2022-09-01T06:16:48.690Z,88.66
2022-09-01T06:19:16.519Z,88.30
2022-09-01T06:21:46.637Z,88.43
2022-09-01T06:24:15.377Z,88.14
2022-09-01T06:26:42.172Z,88.44
2022-09-01T06:29:10.972Z,88.00
2022-09-01T06:31:44.352Z,88.01
2022-09-01T06:34:12.116Z,87.90
2022-09-01T06:36:39.494Z,87.21
2022-09-01T06:39:07.994Z,86.90
2022-09-01T06:41:35.948Z,86.98
2022-09-01T06:44:04.144Z,86.24
2022-09-01T06:46:32.238Z,85.12
2022-09-01T06:49:01.746Z,84.58
2022-09-01T06:51:28.350Z,84.65
2022-09-01T06:53:57.055Z,83.84
2022-09-01T06:56:30.972Z,83.13
2022-09-01T06:59:02.621Z,82.82
2022-09-01T07:01:29.641Z,82.26
2022-09-01T07:03:58.314Z,81.14
2022-09-01T07:09:48.043Z,80.61
2022-09-01T07:12:38.366Z,79.45
2022-09-01T07:17:54.294Z,77.68
2022-09-01T07:20:26.215Z,77.49
2022-09-01T07:23:03.943Z,77.04
2022-09-01T07:26:01.449Z,76.55
2022-09-01T07:28:36.163Z,75.53
2022-09-01T07:34:37.235Z,72.22
2022-09-01T07:46:00.752Z,59.89
2022-09-01T07:51:36.088Z,56.55
2022-09-01T07:54:06.326Z,57.50
2022-09-01T07:56:39.515Z,56.59
2022-09-01T07:59:07.468Z,56.09
2022-09-01T08:01:35.569Z,56.42
2022-09-01T08:04:03.577Z,56.32
2022-09-01T08:06:37.994Z,54.55
2022-09-01T08:09:06.774Z,55.58
2022-09-01T08:12:01.015Z,53.85
2022-09-01T08:14:26.020Z,52.34
2022-09-01T08:16:52.749Z,52.19
2022-09-01T08:19:20.042Z,53.48
2022-09-01T08:22:04.094Z,52.09
2022-09-01T08:24:54.679Z,51.73
2022-09-01T08:27:22.503Z,51.90
2022-09-01T08:29:49.197Z,51.86
2022-09-01T08:32:15.915Z,50.41
2022-09-01T08:34:42.736Z,50.82
2022-09-01T08:37:09.420Z,50.01
2022-09-01T08:39:39.082Z,49.63
2022-09-01T08:42:15.419Z,49.18
2022-09-01T08:44:54.369Z,49.15
2022-09-01T08:47:35.443Z,48.13
2022-09-01T08:50:08.736Z,48.36
2022-09-01T08:53:11.012Z,48.23
2022-09-01T08:55:41.727Z,48.57
2022-09-01T08:58:15.331Z,48.26
2022-09-01T09:01:08.400Z,47.41
2022-09-01T09:03:42.756Z,48.05
2022-09-01T09:06:15.245Z,46.85
2022-09-01T09:08:52.914Z,47.49
2022-09-01T09:11:35.816Z,46.00
2022-09-01T09:14:10.865Z,45.64
2022-09-01T09:16:40.361Z,45.29
2022-09-01T09:19:10.466Z,45.32
2022-09-01T09:21:41.240Z,43.97
2022-09-01T09:24:16.586Z,44.62
2022-09-01T09:26:49.140Z,44.15
2022-09-01T09:29:17.241Z,44.49
2022-09-01T09:31:45.936Z,44.26
2022-09-01T09:34:31.976Z,43.42
2022-09-01T09:37:01.957Z,43.79
2022-09-01T09:39:29.507Z,43.68
2022-09-01T09:42:06.946Z,43.16
2022-09-01T09:44:42.744Z,42.47
2022-09-01T09:47:27.253Z,42.69
2022-09-01T09:52:37.998Z,42.14
2022-09-01T09:55:07.097Z,41.90
2022-09-01T09:57:39.778Z,41.70
2022-09-01T10:00:20.689Z,40.25
2022-09-01T10:02:56.862Z,41.06
2022-09-01T10:05:38.295Z,41.47
2022-09-01T10:08:06.885Z,41.03
2022-09-01T10:10:38.811Z,40.88
2022-09-01T10:13:08.994Z,40.83
2022-09-01T10:15:38.358Z,40.29
2022-09-01T10:18:28.965Z,39.54
2022-09-01T10:20:58.655Z,40.44
2022-09-01T10:23:27.248Z,40.35
2022-09-01T10:26:06.037Z,39.69
2022-09-01T10:28:38.411Z,39.30
2022-09-01T10:31:09.140Z,39.22
2022-09-01T10:33:37.028Z,39.20
2022-09-01T10:36:07.831Z,39.28
2022-09-01T10:38:35.103Z,39.29
2022-09-01T10:41:01.867Z,38.28
2022-09-01T10:43:40.321Z,38.03
2022-09-01T10:46:41.909Z,38.55
2022-09-01T10:49:25.222Z,38.81
2022-09-01T10:51:57.055Z,39.68
2022-09-01T10:54:55.765Z,39.34
2022-09-01T10:57:48.681Z,39.15
2022-09-01T11:01:15.584Z,39.85
2022-09-01T11:03:57.105Z,39.61
2022-09-01T11:07:11.529Z,40.08
2022-09-01T11:09:34.729Z,38.98
2022-09-01T11:12:17.656Z,39.09
2022-09-01T11:14:58.279Z,39.53
2022-09-01T11:17:27.744Z,39.60
2022-09-01T11:19:59.085Z,40.04
2022-09-01T11:22:30.859Z,39.65
2022-09-01T11:25:38.366Z,39.72
2022-09-01T11:28:35.765Z,40.06
2022-09-01T11:31:34.657Z,40.08
2022-09-01T11:34:10.545Z,40.09
2022-09-01T11:36:51.426Z,40.10
2022-09-01T11:39:27.962Z,39.34
2022-09-01T11:42:03.584Z,40.83
2022-09-01T11:44:38.753Z,41.01
2022-09-01T11:47:12.106Z,41.06
2022-09-01T11:49:48.521Z,40.87
2022-09-01T11:52:18.608Z,40.54
2022-09-01T11:54:45.941Z,39.46
2022-09-01T11:57:22.049Z,39.41
2022-09-01T11:59:48.929Z,39.15
2022-09-01T12:02:20.503Z,40.88
2022-09-01T12:04:47.505Z,39.30
2022-09-01T12:07:27.137Z,39.80
2022-09-01T12:09:54.030Z,39.34
2022-09-01T12:12:33.392Z,39.30
2022-09-01T12:15:06.118Z,39.33
2022-09-01T12:17:34.231Z,39.39
2022-09-01T12:20:33.239Z,38.89
2022-09-01T12:23:01.683Z,39.03
2022-09-01T12:25:30.994Z,40.37
2022-09-01T12:28:00.046Z,39.88
2022-09-01T12:30:26.961Z,40.33
2022-09-01T12:33:22.845Z,40.58
2022-09-01T12:35:41.496Z,39.50
2022-09-01T12:38:25.521Z,38.26
2022-09-01T12:40:53.862Z,37.66
2022-09-01T12:43:35.210Z,37.53
2022-09-01T12:46:02.922Z,38.26
2022-09-01T12:48:33.800Z,37.90
2022-09-01T12:51:02.538Z,38.13
2022-09-01T12:53:36.577Z,38.09
2022-09-01T12:56:26.719Z,38.10
2022-09-01T12:59:07.762Z,38.03
2022-09-01T13:01:42.213Z,37.52
2022-09-01T13:04:15.282Z,37.06
2022-09-01T13:06:42.064Z,36.29
2022-09-01T13:09:10.380Z,36.84
2022-09-01T13:14:23.803Z,37.48
2022-09-01T13:16:51.194Z,37.71
2022-09-01T13:19:26.510Z,36.55
2022-09-01T13:21:54.296Z,36.05
2022-09-01T13:24:26.406Z,35.99
2022-09-01T13:29:41.915Z,36.23
2022-09-01T13:32:24.356Z,35.15
2022-09-01T13:34:53.181Z,34.91
2022-09-01T13:37:20.860Z,34.25
2022-09-01T13:39:49.167Z,34.12
2022-09-01T13:42:16.444Z,33.76
2022-09-01T13:44:44.131Z,33.57
2022-09-01T13:50:07.531Z,33.50
2022-09-01T13:52:35.174Z,33.06
2022-09-01T13:55:03.636Z,32.72
2022-09-01T13:57:31.593Z,32.58
2022-09-01T14:00:05.306Z,32.15
2022-09-01T14:02:36.986Z,32.25
2022-09-01T14:05:04.147Z,32.18
2022-09-01T14:07:30.849Z,30.68
2022-09-01T14:09:57.454Z,30.68
2022-09-01T14:12:25.474Z,30.42
2022-09-01T14:17:38.977Z,31.06
2022-09-01T14:20:08.455Z,31.44
2022-09-01T14:22:38.452Z,31.40
2022-09-01T14:25:06.169Z,30.31
2022-09-01T14:27:34.460Z,30.40
2022-09-01T14:30:01.069Z,30.30
2022-09-01T14:32:27.740Z,30.19
2022-09-01T14:34:55.379Z,29.77
2022-09-01T14:37:22.593Z,28.97
2022-09-01T14:39:50.130Z,29.91
2022-09-01T14:42:17.219Z,30.29
2022-09-01T14:44:48.705Z,29.65
2022-09-01T14:47:19.390Z,29.18
2022-09-01T14:49:47.713Z,28.91
2022-09-01T14:52:14.566Z,28.40
2022-09-01T14:54:42.239Z,28.18
2022-09-01T14:59:58.246Z,28.29
2022-09-01T15:02:25.536Z,28.61
2022-09-01T15:04:52.547Z,28.60
2022-09-01T15:07:19.486Z,28.77
2022-09-01T15:09:46.383Z,27.97
2022-09-01T15:12:13.326Z,28.75
2022-09-01T15:14:40.288Z,26.98
2022-09-01T15:17:08.353Z,26.91
2022-09-01T15:19:34.976Z,27.00
2022-09-01T15:22:02.508Z,26.78
2022-09-01T15:24:29.199Z,27.07
2022-09-01T15:26:55.854Z,26.03
2022-09-01T15:29:22.719Z,26.32
2022-09-01T15:31:49.535Z,25.90
2022-09-01T15:34:17.706Z,26.18
2022-09-01T15:36:44.635Z,26.41
2022-09-01T15:39:11.854Z,25.72
2022-09-01T15:41:38.662Z,25.72
2022-09-01T15:44:07.374Z,25.83
2022-09-01T15:46:34.575Z,25.18
2022-09-01T15:49:03.434Z,25.40
2022-09-01T15:51:34.227Z,25.28
2022-09-01T15:54:02.322Z,23.93
2022-09-01T15:56:29.631Z,24.17
2022-09-01T15:59:03.377Z,24.67
2022-09-01T16:01:32.414Z,23.81
2022-09-01T16:03:59.947Z,24.07
2022-09-01T16:06:27.414Z,23.54
2022-09-01T16:08:55.688Z,23.95
2022-09-01T16:11:23.693Z,23.79
2022-09-01T16:13:52.449Z,23.60
2022-09-01T16:16:41.359Z,23.23
2022-09-01T16:19:20.243Z,23.27
2022-09-01T16:21:54.333Z,22.77
2022-09-01T16:24:22.563Z,22.28
2022-09-01T16:26:49.682Z,22.61
2022-09-01T16:29:26.071Z,23.00
2022-09-01T16:31:56.127Z,22.69
2022-09-01T16:34:27.720Z,22.52
2022-09-01T16:37:04.489Z,22.31
2022-09-01T16:39:43.636Z,21.34
2022-09-01T16:42:21.025Z,21.04
2022-09-01T16:44:57.471Z,21.29
2022-09-01T16:47:36.334Z,20.95
2022-09-01T16:50:13.031Z,21.38
2022-09-01T16:52:56.053Z,21.05
2022-09-01T16:55:32.222Z,20.71
2022-09-01T16:58:09.186Z,20.87
2022-09-01T17:00:46.584Z,21.41
2022-09-01T17:03:18.052Z,21.54
2022-09-01T17:05:54.364Z,22.14
2022-09-01T17:08:24.530Z,21.69
2022-09-01T17:10:57.926Z,22.20
2022-09-01T17:13:33.220Z,22.98
2022-09-01T17:16:04.109Z,23.26
2022-09-01T17:18:34.543Z,23.84
2022-09-01T17:21:06.891Z,24.31
2022-09-01T17:23:38.400Z,25.23
2022-09-01T17:26:15.990Z,26.31
2022-09-01T17:28:47.830Z,26.76
2022-09-01T17:31:23.070Z,27.13
2022-09-01T17:34:00.944Z,27.34
2022-09-01T17:36:39.808Z,28.38
2022-09-01T17:39:22.173Z,28.96
2022-09-01T17:41:58.572Z,28.89
2022-09-01T17:44:32.514Z,29.70
2022-09-01T17:47:10.085Z,30.71
2022-09-01T17:49:44.110Z,31.32
2022-09-01T17:52:17.941Z,31.55
2022-09-01T17:54:54.429Z,32.55
2022-09-01T17:57:30.184Z,33.22
2022-09-01T18:00:02.099Z,34.23
2022-09-01T18:03:13.131Z,35.89
2022-09-01T18:05:42.562Z,36.74
2022-09-01T18:08:26.922Z,37.21
2022-09-01T18:10:58.809Z,38.33
2022-09-01T18:13:52.512Z,38.91
2022-09-01T18:16:23.381Z,39.96
2022-09-01T18:18:51.868Z,40.43
2022-09-01T18:21:20.195Z,40.46
2022-09-01T18:23:50.499Z,40.82
2022-09-01T18:26:23.246Z,41.65
2022-09-01T18:28:53.099Z,42.19
2022-09-01T18:31:41.843Z,42.58
2022-09-01T18:34:14.917Z,43.59
2022-09-01T18:36:49.472Z,43.71
2022-09-01T18:39:25.380Z,44.38
2022-09-01T18:42:04.615Z,44.85
2022-09-01T18:44:50.578Z,44.97
2022-09-01T18:47:31.713Z,45.32
2022-09-01T18:50:06.390Z,45.76
2022-09-01T18:52:50.924Z,45.94
2022-09-01T18:55:23.652Z,45.87
2022-09-01T18:57:53.490Z,46.64
2022-09-01T19:00:26.298Z,47.03
2022-09-01T19:03:13.622Z,47.44
2022-09-01T19:06:01.186Z,47.60
2022-09-01T19:08:43.403Z,47.77
2022-09-01T19:11:16.621Z,48.10
2022-09-01T19:13:53.341Z,48.62
2022-09-01T19:16:37.518Z,49.22
2022-09-01T19:19:18.321Z,49.54
2022-09-01T19:21:48.094Z,49.75
2022-09-01T19:24:25.077Z,50.17
2022-09-01T19:26:56.642Z,50.17
2022-09-01T19:29:25.397Z,50.33
2022-09-01T19:31:57.119Z,50.90
2022-09-01T19:34:28.086Z,51.21
2022-09-01T19:36:57.077Z,51.72
2022-09-01T19:39:26.362Z,52.02
2022-09-01T19:41:59.649Z,52.02
2022-09-01T19:44:40.182Z,52.28
2022-09-01T19:47:13.134Z,52.71
2022-09-01T19:49:44.602Z,53.34
2022-09-01T19:52:23.599Z,53.24
2022-09-01T19:54:55.626Z,53.79
2022-09-01T19:57:32.381Z,53.71
2022-09-01T20:00:06.002Z,54.21
2022-09-01T20:02:38.221Z,54.31
2022-09-01T20:05:16.912Z,54.43
2022-09-01T20:07:51.408Z,54.49
2022-09-01T20:10:27.241Z,54.84
2022-09-01T20:13:05.878Z,54.96
2022-09-01T20:15:40.111Z,55.16
2022-09-01T20:18:19.925Z,55.34
2022-09-01T20:20:48.422Z,55.80
2022-09-01T20:23:23.853Z,56.05
2022-09-01T20:25:55.086Z,55.89
2022-09-01T20:28:30.914Z,55.84
2022-09-01T20:31:03.247Z,56.13
2022-09-01T20:33:37.236Z,55.90
2022-09-01T20:36:09.325Z,56.33
2022-09-01T20:38:44.927Z,55.64
2022-09-01T20:41:18.106Z,55.85
2022-09-01T20:43:47.924Z,56.03
2022-09-01T20:46:17.800Z,56.19
2022-09-01T20:48:46.082Z,56.43
2022-09-01T20:51:18.048Z,56.47
2022-09-01T20:54:00.765Z,56.12
2022-09-01T20:56:39.362Z,55.07
2022-09-01T20:59:12.674Z,54.64
2022-09-01T21:01:47.164Z,54.94
2022-09-01T21:04:31.107Z,54.58
2022-09-01T21:07:03.512Z,53.35
2022-09-01T21:09:39.501Z,51.95
2022-09-01T21:12:08.732Z,51.56
2022-09-01T21:14:47.549Z,50.72
2022-09-01T21:17:23.389Z,49.35
2022-09-01T21:19:59.430Z,48.47
2022-09-01T21:22:27.832Z,47.88
2022-09-01T21:24:54.487Z,48.33
2022-09-01T21:27:24.252Z,46.67
2022-09-01T21:29:56.440Z,47.60
2022-09-01T21:32:23.093Z,47.34
2022-09-01T21:34:50.281Z,47.06
2022-09-01T21:37:18.723Z,47.17
2022-09-01T21:39:45.253Z,47.51
2022-09-01T21:42:13.382Z,47.00
2022-09-01T21:44:41.024Z,47.05
2022-09-01T21:47:07.669Z,47.31
2022-09-01T21:49:34.233Z,46.66
2022-09-01T21:52:00.822Z,46.42
2022-09-01T21:54:28.728Z,46.43
2022-09-01T21:56:55.429Z,45.76
2022-09-01T21:59:22.287Z,45.24
2022-09-01T22:01:49.035Z,45.03
2022-09-01T22:04:17.747Z,46.19
2022-09-01T22:06:45.769Z,45.54
2022-09-01T22:09:20.499Z,46.06
2022-09-01T22:11:51.018Z,45.52
2022-09-01T22:14:18.297Z,45.06
2022-09-01T22:16:44.971Z,45.00
2022-09-01T22:19:11.567Z,44.28
2022-09-01T22:21:40.282Z,44.87
2022-09-01T22:24:07.912Z,44.21
2022-09-01T22:26:35.345Z,44.18
2022-09-01T22:29:05.838Z,43.87
2022-09-01T22:31:34.879Z,44.47
2022-09-01T22:34:01.487Z,44.33
2022-09-01T22:36:30.288Z,43.99
2022-09-01T22:38:57.571Z,44.29
2022-09-01T22:41:25.653Z,44.20
2022-09-01T22:43:52.702Z,44.47
2022-09-01T22:46:21.127Z,44.19
2022-09-01T22:48:48.696Z,44.32
2022-09-01T22:51:15.362Z,44.73
2022-09-01T22:53:43.416Z,44.38
2022-09-01T22:56:11.854Z,44.53
2022-09-01T22:58:38.476Z,44.78
2022-09-01T23:01:10.466Z,44.36
2022-09-01T23:03:38.812Z,45.01
2022-09-01T23:06:07.568Z,45.10
2022-09-01T23:08:34.591Z,45.03
2022-09-01T23:11:01.419Z,45.04
2022-09-01T23:13:28.059Z,44.88
2022-09-01T23:15:55.178Z,45.63
2022-09-01T23:18:22.199Z,46.48
2022-09-01T23:20:50.159Z,46.76
2022-09-01T23:23:17.224Z,46.94
2022-09-01T23:25:44.086Z,47.41
2022-09-01T23:28:11.135Z,48.24
2022-09-01T23:30:40.494Z,48.17
2022-09-01T23:33:07.213Z,48.66
2022-09-01T23:35:33.985Z,49.23
2022-09-01T23:38:02.038Z,49.62
2022-09-01T23:40:28.688Z,50.36
2022-09-01T23:42:55.326Z,50.29
2022-09-01T23:45:21.933Z,50.16
2022-09-01T23:47:48.571Z,50.27
2022-09-01T23:50:15.108Z,51.00
2022-09-01T23:52:41.775Z,51.37
2022-09-01T23:55:10.105Z,51.62
2022-09-01T23:57:36.706Z,51.83
